createdAt,value
2016-06-01T00:00:53.838Z,20.65
2016-06-01T00:01:53.825Z,20.63
2016-06-01T00:02:53.844Z,20.66
2016-06-01T00:03:53.814Z,20.58
2016-06-01T00:04:53.786Z,20.48
2016-06-01T00:05:53.773Z,20.56
2016-06-01T00:06:53.588Z,20.47
2016-06-01T00:07:53.747Z,20.55
2016-06-01T00:08:53.968Z,20.55
2016-06-01T00:09:53.743Z,20.52
2016-06-01T00:10:53.741Z,20.51
2016-06-01T00:11:53.769Z,20.59
2016-06-01T00:12:53.768Z,20.37
2016-06-01T00:13:53.608Z,20.43
2016-06-01T00:14:53.780Z,20.6
2016-06-01T00:15:53.619Z,20.41
2016-06-01T00:16:53.601Z,20.44
2016-06-01T00:17:53.769Z,20.43
2016-06-01T00:18:53.610Z,20.5
2016-06-01T00:19:54.446Z,20.41
2016-06-01T00:20:53.733Z,20.41
2016-06-01T00:21:53.708Z,20.39
2016-06-01T00:22:53.698Z,20.41
2016-06-01T00:23:54.408Z,20.41
2016-06-01T00:24:53.692Z,20.5
2016-06-01T00:25:53.681Z,20.44
2016-06-01T00:26:53.638Z,20.43
2016-06-01T00:27:53.642Z,20.4
2016-06-01T00:28:53.630Z,20.51
2016-06-01T00:29:53.602Z,20.67
2016-06-01T00:30:53.605Z,20.74
2016-06-01T00:31:53.577Z,20.69
2016-06-01T00:32:53.564Z,20.74
2016-06-01T00:33:53.567Z,20.77
2016-06-01T00:34:53.383Z,20.74
2016-06-01T00:35:53.354Z,20.5
2016-06-01T00:36:53.514Z,20.56
2016-06-01T00:37:53.484Z,20.44
2016-06-01T00:38:53.503Z,20.56
2016-06-01T00:39:53.459Z,20.59
2016-06-01T00:40:53.447Z,20.67
2016-06-01T00:41:53.417Z,20.74
2016-06-01T00:42:53.405Z,20.66
2016-06-01T00:43:53.407Z,20.77
2016-06-01T00:44:53.378Z,20.72
2016-06-01T00:45:53.053Z,20.59
2016-06-01T00:46:53.337Z,20.5
2016-06-01T00:47:53.324Z,20.39
2016-06-01T00:48:53.296Z,20.39
2016-06-01T00:49:53.299Z,20.58
2016-06-01T00:50:53.285Z,20.66
2016-06-01T00:51:53.257Z,20.72
2016-06-01T00:52:53.244Z,20.66
2016-06-01T00:53:52.934Z,20.7
2016-06-01T00:54:53.218Z,20.69
2016-06-01T00:55:52.893Z,20.66
2016-06-01T00:56:53.192Z,20.66
2016-06-01T00:57:53.179Z,20.5
2016-06-01T00:58:53.151Z,20.65
2016-06-01T00:59:52.981Z,20.62
2016-06-01T01:00:52.968Z,20.6
2016-06-01T01:01:53.112Z,20.56
2016-06-01T01:02:53.099Z,20.55
2016-06-01T01:03:52.773Z,20.4
2016-06-01T01:04:53.073Z,20.56
2016-06-01T01:05:53.044Z,20.63
2016-06-01T01:06:52.875Z,20.72
2016-06-01T01:07:53.019Z,20.62
2016-06-01T01:08:53.084Z,20.56
2016-06-01T01:09:52.992Z,20.58
2016-06-01T01:10:52.964Z,20.56
2016-06-01T01:11:52.967Z,20.52
2016-06-01T01:12:52.953Z,20.39
2016-06-01T01:13:52.925Z,20.41
2016-06-01T01:14:52.913Z,20.44
2016-06-01T01:15:52.900Z,20.26
2016-06-01T01:16:52.871Z,20.26
2016-06-01T01:17:52.858Z,20.36
2016-06-01T01:18:52.688Z,20.37
2016-06-01T01:19:52.691Z,20.21
2016-06-01T01:20:52.835Z,20.31
2016-06-01T01:21:52.807Z,20.34
2016-06-01T01:22:52.793Z,20.22
2016-06-01T01:23:52.968Z,20.26
2016-06-01T01:24:52.611Z,20.4
2016-06-01T01:25:52.738Z,20.4
2016-06-01T01:26:52.726Z,20.4
2016-06-01T01:27:52.713Z,20.44
2016-06-01T01:28:52.701Z,20.55
2016-06-01T01:29:52.687Z,20.4
2016-06-01T01:30:52.673Z,20.34
2016-06-01T01:31:52.645Z,20.36
2016-06-01T01:32:52.476Z,20.43
2016-06-01T01:33:52.651Z,20.48
2016-06-01T01:34:52.466Z,20.6
2016-06-01T01:35:52.609Z,20.44
2016-06-01T01:36:52.581Z,20.44
2016-06-01T01:37:52.568Z,20.55
2016-06-01T01:38:53.070Z,20.43
2016-06-01T01:39:52.526Z,20.51
2016-06-01T01:40:52.497Z,20.4
2016-06-01T01:41:52.500Z,20.44
2016-06-01T01:42:52.472Z,20.51
2016-06-01T01:43:52.459Z,20.52
2016-06-01T01:44:52.461Z,20.52
2016-06-01T01:45:52.449Z,20.67
2016-06-01T01:46:52.420Z,20.51
2016-06-01T01:47:52.392Z,20.56
2016-06-01T01:48:52.379Z,20.58
2016-06-01T01:49:52.382Z,20.5
2016-06-01T01:50:52.353Z,20.52
2016-06-01T01:51:52.340Z,20.44
2016-06-01T01:52:52.327Z,20.4
2016-06-01T01:53:52.157Z,20.4
2016-06-01T01:54:52.301Z,20.11
2016-06-01T01:55:52.116Z,20.22
2016-06-01T01:56:52.276Z,20.37
2016-06-01T01:57:52.246Z,20.34
2016-06-01T01:58:52.218Z,20.22
2016-06-01T01:59:52.205Z,20.11
2016-06-01T02:00:52.192Z,20.18
2016-06-01T02:01:52.023Z,20.11
2016-06-01T02:02:52.166Z,20.13
2016-06-01T02:03:52.154Z,20.13
2016-06-01T02:04:52.140Z,20.24
2016-06-01T02:05:52.128Z,20.29
2016-06-01T02:06:52.099Z,20.31
2016-06-01T02:07:52.086Z,20.24
2016-06-01T02:08:52.088Z,20.13
2016-06-01T02:09:52.061Z,20.13
2016-06-01T02:10:52.047Z,20.03
2016-06-01T02:11:51.878Z,20.1
2016-06-01T02:12:52.006Z,20.11
2016-06-01T02:13:51.992Z,20.11
2016-06-01T02:14:51.980Z,20.13
2016-06-01T02:15:51.827Z,20.14
2016-06-01T02:16:51.955Z,20.16
2016-06-01T02:17:51.925Z,20.07
2016-06-01T02:18:51.756Z,20.13
2016-06-01T02:19:51.899Z,20.09
2016-06-01T02:20:51.730Z,20.13
2016-06-01T02:21:51.718Z,20.14
2016-06-01T02:22:51.860Z,20.1
2016-06-01T02:23:51.724Z,20.22
2016-06-01T02:24:51.835Z,20.1
2016-06-01T02:25:51.681Z,20.06
2016-06-01T02:26:51.793Z,20.02
2016-06-01T02:27:51.640Z,19.95
2016-06-01T02:28:51.767Z,19.89
2016-06-01T02:29:51.755Z,19.77
2016-06-01T02:30:51.727Z,20.03
2016-06-01T02:31:51.712Z,19.95
2016-06-01T02:32:51.685Z,19.85
2016-06-01T02:33:51.671Z,19.92
2016-06-01T02:34:51.674Z,19.88
2016-06-01T02:35:51.646Z,19.85
2016-06-01T02:36:51.633Z,19.92
2016-06-01T02:37:51.635Z,20.09
2016-06-01T02:38:52.013Z,19.99
2016-06-01T02:39:51.609Z,20.02
2016-06-01T02:40:51.425Z,19.89
2016-06-01T02:41:51.568Z,19.91
2016-06-01T02:42:51.556Z,20.03
2016-06-01T02:43:51.370Z,20
2016-06-01T02:44:51.513Z,20.1
2016-06-01T02:45:51.485Z,20.09
2016-06-01T02:46:51.488Z,20.13
2016-06-01T02:47:51.522Z,20.04
2016-06-01T02:48:51.447Z,20.1
2016-06-01T02:49:51.277Z,20.09
2016-06-01T02:50:51.248Z,20.07
2016-06-01T02:51:51.485Z,20.04
2016-06-01T02:52:51.442Z,20.03
2016-06-01T02:53:52.522Z,20.04
2016-06-01T02:54:51.353Z,20.11
2016-06-01T02:55:51.325Z,20.06
2016-06-01T02:56:51.312Z,19.99
2016-06-01T02:57:51.314Z,19.84
2016-06-01T02:58:51.286Z,20.03
2016-06-01T02:59:51.114Z,20.07
2016-06-01T03:00:51.101Z,20.04
2016-06-01T03:01:51.244Z,20.11
2016-06-01T03:02:51.076Z,20.1
2016-06-01T03:03:51.218Z,20.07
2016-06-01T03:04:51.048Z,20.06
2016-06-01T03:05:51.193Z,19.99
2016-06-01T03:06:51.164Z,20.13
2016-06-01T03:07:51.167Z,20.06
2016-06-01T03:08:51.560Z,20.14
2016-06-01T03:09:51.109Z,20.19
2016-06-01T03:10:51.081Z,20.16
2016-06-01T03:11:51.099Z,20.13
2016-06-01T03:12:51.071Z,20.06
2016-06-01T03:13:50.917Z,19.96
2016-06-01T03:14:50.889Z,20.06
2016-06-01T03:15:51.031Z,20.02
2016-06-01T03:16:51.019Z,19.92
2016-06-01T03:17:51.006Z,19.94
2016-06-01T03:18:50.978Z,19.91
2016-06-01T03:19:50.964Z,20.02
2016-06-01T03:20:50.795Z,20.07
2016-06-01T03:21:50.923Z,20.07
2016-06-01T03:22:50.894Z,20.07
2016-06-01T03:23:50.913Z,19.99
2016-06-01T03:24:50.869Z,20.07
2016-06-01T03:25:50.856Z,20.11
2016-06-01T03:26:50.686Z,20.11
2016-06-01T03:27:50.689Z,20.16
2016-06-01T03:28:50.817Z,19.99
2016-06-01T03:29:50.663Z,19.99
2016-06-01T03:30:50.776Z,19.89
2016-06-01T03:31:50.622Z,19.92
2016-06-01T03:32:50.750Z,19.94
2016-06-01T03:33:50.737Z,19.89
2016-06-01T03:34:50.707Z,19.92
2016-06-01T03:35:50.710Z,19.91
2016-06-01T03:36:50.713Z,19.91
2016-06-01T03:37:50.685Z,19.96
2016-06-01T03:38:50.657Z,20.04
2016-06-01T03:39:50.659Z,20.06
2016-06-01T03:40:50.645Z,19.95
2016-06-01T03:41:50.617Z,20.1
2016-06-01T03:42:50.589Z,20.02
2016-06-01T03:43:50.592Z,20.07
2016-06-01T03:44:50.564Z,19.95
2016-06-01T03:45:50.535Z,20
2016-06-01T03:46:50.521Z,20
2016-06-01T03:47:50.367Z,19.96
2016-06-01T03:48:50.511Z,19.99
2016-06-01T03:49:50.483Z,20.16
2016-06-01T03:50:50.469Z,20.06
2016-06-01T03:51:50.301Z,20.14
2016-06-01T03:52:50.427Z,20
2016-06-01T03:53:50.931Z,20.03
2016-06-01T03:54:50.403Z,20
2016-06-01T03:55:50.405Z,20.14
2016-06-01T03:56:50.377Z,20.07
2016-06-01T03:57:50.349Z,20.09
2016-06-01T03:58:50.194Z,20.06
2016-06-01T03:59:50.322Z,20.14
2016-06-01T04:00:50.324Z,20.1
2016-06-01T04:01:50.280Z,20.09
2016-06-01T04:02:50.283Z,20.13
2016-06-01T04:03:50.099Z,20.09
2016-06-01T04:04:50.102Z,20.04
2016-06-01T04:05:50.228Z,20.07
2016-06-01T04:06:50.232Z,20.03
2016-06-01T04:07:50.047Z,20
2016-06-01T04:08:50.737Z,20.04
2016-06-01T04:09:50.443Z,20.16
2016-06-01T04:10:50.165Z,20.1
2016-06-01T04:11:49.979Z,20.26
2016-06-01T04:12:50.123Z,20.14
2016-06-01T04:13:50.095Z,20.13
2016-06-01T04:14:50.081Z,20.1
2016-06-01T04:15:49.928Z,20.22
2016-06-01T04:16:50.071Z,20.24
2016-06-01T04:17:50.058Z,20.37
2016-06-01T04:18:50.014Z,20.29
2016-06-01T04:19:50.016Z,20.19
2016-06-01T04:20:49.848Z,20.13
2016-06-01T04:21:49.975Z,20.02
2016-06-01T04:22:49.962Z,20.11
2016-06-01T04:23:50.418Z,20.14
2016-06-01T04:24:49.936Z,20.29
2016-06-01T04:25:49.938Z,20.25
2016-06-01T04:26:49.927Z,20.24
2016-06-01T04:27:49.725Z,20.37
2016-06-01T04:28:49.869Z,20.32
2016-06-01T04:29:49.855Z,20.28
2016-06-01T04:30:49.844Z,20.09
2016-06-01T04:31:49.829Z,20.13
2016-06-01T04:32:49.818Z,20.14
2016-06-01T04:33:49.788Z,20.13
2016-06-01T04:34:49.760Z,20.13
2016-06-01T04:35:49.763Z,20.09
2016-06-01T04:36:49.749Z,20.13
2016-06-01T04:37:49.721Z,20.14
2016-06-01T04:38:50.505Z,20.11
2016-06-01T04:39:49.540Z,20.11
2016-06-01T04:40:49.682Z,20.04
2016-06-01T04:41:49.513Z,20.02
2016-06-01T04:42:49.656Z,19.89
2016-06-01T04:43:49.472Z,19.85
2016-06-01T04:44:49.631Z,19.81
2016-06-01T04:45:49.445Z,19.92
2016-06-01T04:46:49.292Z,19.92
2016-06-01T04:47:49.576Z,19.86
2016-06-01T04:48:49.563Z,19.91
2016-06-01T04:49:49.567Z,19.88
2016-06-01T04:50:49.537Z,19.74
2016-06-01T04:51:49.196Z,19.86
2016-06-01T04:52:49.497Z,19.82
2016-06-01T04:53:50.233Z,19.74
2016-06-01T04:54:50.204Z,19.71
2016-06-01T04:55:49.442Z,19.66
2016-06-01T04:56:49.428Z,19.67
2016-06-01T04:57:49.400Z,19.79
2016-06-01T04:58:49.402Z,19.76
2016-06-01T04:59:49.391Z,19.69
2016-06-01T05:00:49.361Z,19.74
2016-06-01T05:01:49.349Z,19.81
2016-06-01T05:02:49.335Z,19.77
2016-06-01T05:03:49.322Z,19.7
2016-06-01T05:04:49.310Z,19.54
2016-06-01T05:05:49.124Z,19.62
2016-06-01T05:06:49.284Z,19.63
2016-06-01T05:07:49.255Z,19.64
2016-06-01T05:08:49.243Z,19.7
2016-06-01T05:09:49.230Z,19.59
2016-06-01T05:10:49.201Z,19.64
2016-06-01T05:11:49.187Z,19.79
2016-06-01T05:12:49.175Z,19.92
2016-06-01T05:13:49.178Z,19.96
2016-06-01T05:14:49.133Z,19.84
2016-06-01T05:15:49.136Z,19.77
2016-06-01T05:16:49.107Z,19.66
2016-06-01T05:17:49.095Z,19.69
2016-06-01T05:18:49.081Z,19.52
2016-06-01T05:19:49.069Z,19.51
2016-06-01T05:20:48.884Z,19.58
2016-06-01T05:21:49.028Z,19.64
2016-06-01T05:22:49.014Z,19.67
2016-06-01T05:23:49.563Z,19.59
2016-06-01T05:24:49.129Z,19.56
2016-06-01T05:25:48.975Z,19.69
2016-06-01T05:26:48.806Z,19.56
2016-06-01T05:27:48.966Z,19.54
2016-06-01T05:28:48.921Z,19.48
2016-06-01T05:29:48.908Z,19.41
2016-06-01T05:30:48.911Z,19.48
2016-06-01T05:31:48.726Z,19.52
2016-06-01T05:32:48.713Z,19.47
2016-06-01T05:33:48.685Z,19.44
2016-06-01T05:34:48.843Z,19.48
2016-06-01T05:35:48.799Z,19.62
2016-06-01T05:36:48.786Z,19.64
2016-06-01T05:37:48.618Z,19.54
2016-06-01T05:38:49.432Z,19.54
2016-06-01T05:39:48.748Z,19.52
2016-06-01T05:40:48.718Z,19.67
2016-06-01T05:41:48.706Z,19.66
2016-06-01T05:42:48.537Z,19.51
2016-06-01T05:43:48.679Z,19.74
2016-06-01T05:44:48.651Z,19.77
2016-06-01T05:45:48.654Z,19.58
2016-06-01T05:46:48.642Z,19.58
2016-06-01T05:47:48.300Z,19.62
2016-06-01T05:48:48.615Z,19.55
2016-06-01T05:49:48.587Z,19.51
2016-06-01T05:50:48.418Z,19.44
2016-06-01T05:51:48.545Z,19.49
2016-06-01T05:52:48.548Z,19.56
2016-06-01T05:53:48.644Z,19.7
2016-06-01T05:54:49.694Z,19.64
2016-06-01T05:55:48.478Z,19.49
2016-06-01T05:56:48.325Z,19.56
2016-06-01T05:57:48.452Z,19.54
2016-06-01T05:58:48.439Z,19.74
2016-06-01T05:59:48.458Z,19.69
2016-06-01T06:00:48.430Z,19.62
2016-06-01T06:01:48.432Z,19.58
2016-06-01T06:02:48.075Z,19.62
2016-06-01T06:03:48.375Z,19.59
2016-06-01T06:04:48.346Z,19.69
2016-06-01T06:05:48.176Z,19.64
2016-06-01T06:06:48.163Z,19.59
2016-06-01T06:07:48.307Z,19.79
2016-06-01T06:08:48.341Z,19.85
2016-06-01T06:09:48.359Z,19.86
2016-06-01T06:10:52.471Z,19.85
2016-06-01T06:11:48.240Z,19.88
2016-06-01T06:12:48.243Z,19.79
2016-06-01T06:13:48.199Z,19.67
2016-06-01T06:14:48.029Z,19.74
2016-06-01T06:15:50.078Z,19.81
2016-06-01T06:16:48.159Z,19.84
2016-06-01T06:17:47.990Z,19.82
2016-06-01T06:18:48.133Z,19.89
2016-06-01T06:19:48.120Z,19.89
2016-06-01T06:20:50.670Z,19.91
2016-06-01T06:21:48.094Z,20.04
2016-06-01T06:22:47.909Z,20.04
2016-06-01T06:23:48.367Z,20.11
2016-06-01T06:24:48.556Z,20.13
2016-06-01T06:25:50.950Z,20.13
2016-06-01T06:26:47.999Z,20.14
2016-06-01T06:27:47.986Z,20.31
2016-06-01T06:28:47.957Z,20.22
2016-06-01T06:29:47.789Z,20.34
2016-06-01T06:30:49.431Z,20.31
2016-06-01T06:31:47.918Z,20.29
2016-06-01T06:32:47.905Z,20.21
2016-06-01T06:33:47.893Z,20.22
2016-06-01T06:34:47.708Z,20.25
2016-06-01T06:35:49.508Z,20.4
2016-06-01T06:36:47.838Z,20.47
2016-06-01T06:37:47.685Z,20.48
2016-06-01T06:38:48.452Z,20.48
2016-06-01T06:39:47.643Z,20.55
2016-06-01T06:40:51.162Z,20.56
2016-06-01T06:41:47.602Z,20.65
2016-06-01T06:42:47.589Z,20.74
2016-06-01T06:43:47.576Z,20.74
2016-06-01T06:44:47.563Z,20.78
2016-06-01T06:45:50.315Z,20.69
2016-06-01T06:46:47.693Z,20.8
2016-06-01T06:47:47.681Z,20.78
2016-06-01T06:48:47.651Z,20.75
2016-06-01T06:49:47.639Z,20.88
2016-06-01T06:50:50.892Z,20.93
2016-06-01T06:51:47.613Z,20.99
2016-06-01T06:52:47.584Z,21.05
2016-06-01T06:53:47.836Z,21.15
2016-06-01T06:54:47.667Z,21.21
2016-06-01T06:55:49.045Z,21.17
2016-06-01T06:56:47.533Z,21.2
2016-06-01T06:57:47.504Z,21.15
2016-06-01T06:58:47.507Z,21.21
2016-06-01T06:59:47.338Z,21.22
2016-06-01T07:00:47.715Z,21.32
2016-06-01T07:01:47.452Z,21.4
2016-06-01T07:02:47.439Z,21.2
2016-06-01T07:03:47.427Z,21.21
2016-06-01T07:04:47.258Z,21.35
2016-06-01T07:05:49.276Z,21.39
2016-06-01T07:06:47.216Z,21.45
2016-06-01T07:07:47.374Z,21.36
2016-06-01T07:08:47.206Z,21.36
2016-06-01T07:09:48.724Z,21.37
2016-06-01T07:10:49.133Z,21.46
2016-06-01T07:11:47.291Z,21.36
2016-06-01T07:12:47.279Z,21.36
2016-06-01T07:13:47.266Z,21.39
2016-06-01T07:14:47.112Z,21.42
2016-06-01T07:15:50.412Z,21.5
2016-06-01T07:16:47.211Z,21.58
2016-06-01T07:17:47.043Z,21.58
2016-06-01T07:18:47.029Z,21.66
2016-06-01T07:19:47.188Z,21.55
2016-06-01T07:20:48.566Z,21.67
2016-06-01T07:21:47.147Z,21.57
2016-06-01T07:22:47.134Z,21.52
2016-06-01T07:23:47.183Z,21.37
2016-06-01T07:24:47.123Z,21.5
2016-06-01T07:25:48.408Z,21.48
2016-06-01T07:26:47.082Z,21.51
2016-06-01T07:27:47.069Z,21.61
2016-06-01T07:28:47.056Z,21.61
2016-06-01T07:29:47.028Z,21.55
2016-06-01T07:30:51.139Z,21.76
2016-06-01T07:31:46.986Z,21.79
2016-06-01T07:32:46.973Z,21.76
2016-06-01T07:33:46.961Z,21.72
2016-06-01T07:34:46.947Z,21.77
2016-06-01T07:35:48.372Z,21.8
2016-06-01T07:36:46.922Z,21.82
2016-06-01T07:37:46.752Z,21.75
2016-06-01T07:38:46.738Z,21.89
2016-06-01T07:39:46.882Z,21.82
2016-06-01T07:40:50.666Z,21.82
2016-06-01T07:41:46.841Z,22.04
2016-06-01T07:42:46.829Z,22.11
2016-06-01T07:43:46.816Z,22.02
2016-06-01T07:44:46.802Z,22.07
2016-06-01T07:45:47.554Z,22.04
2016-06-01T07:46:46.760Z,22.1
2016-06-01T07:47:46.763Z,22.15
2016-06-01T07:48:47.173Z,22.2
2016-06-01T07:49:46.582Z,22.15
2016-06-01T07:50:48.178Z,22.2
2016-06-01T07:51:46.712Z,22.14
2016-06-01T07:52:46.698Z,22.17
2016-06-01T07:53:47.092Z,22.26
2016-06-01T07:54:46.657Z,22.28
2016-06-01T07:55:52.285Z,22.26
2016-06-01T07:56:46.616Z,22.29
2016-06-01T07:57:46.634Z,22.38
2016-06-01T07:58:46.590Z,22.48
2016-06-01T07:59:46.420Z,22.38
2016-06-01T08:00:49.628Z,22.44
2016-06-01T08:01:46.394Z,22.48
2016-06-01T08:02:46.538Z,22.51
2016-06-01T08:03:46.525Z,22.5
2016-06-01T08:04:53.325Z,22.45
2016-06-01T08:05:54.593Z,22.39
2016-06-01T08:06:47.939Z,22.62
2016-06-01T08:07:46.458Z,22.65
2016-06-01T08:08:46.617Z,22.66
2016-06-01T08:09:46.447Z,22.72
2016-06-01T08:10:50.732Z,22.69
2016-06-01T08:11:46.390Z,22.76
2016-06-01T08:12:46.409Z,22.83
2016-06-01T08:13:46.380Z,22.81
2016-06-01T08:14:46.368Z,22.76
2016-06-01T08:15:49.043Z,22.81
2016-06-01T08:16:46.341Z,22.75
2016-06-01T08:17:46.329Z,22.68
2016-06-01T08:18:46.315Z,22.7
2016-06-01T08:19:46.271Z,22.76
2016-06-01T08:20:48.743Z,22.73
2016-06-01T08:21:46.168Z,22.88
2016-06-01T08:22:46.233Z,22.78
2016-06-01T08:23:46.235Z,22.73
2016-06-01T08:24:46.269Z,22.83
2016-06-01T08:25:48.570Z,22.83
2016-06-01T08:26:46.040Z,22.83
2016-06-01T08:27:46.028Z,22.84
2016-06-01T08:28:45.998Z,22.96
2016-06-01T08:29:45.986Z,22.93
2016-06-01T08:30:46.145Z,23
2016-06-01T08:31:45.961Z,23.1
2016-06-01T08:32:46.103Z,23.17
2016-06-01T08:33:46.121Z,22.94
2016-06-01T08:34:46.078Z,23.02
2016-06-01T08:35:46.064Z,23.06
2016-06-01T08:36:45.755Z,23.09
2016-06-01T08:37:46.023Z,23.05
2016-06-01T08:38:45.869Z,23.12
2016-06-01T08:39:45.857Z,23.17
2016-06-01T08:40:47.766Z,23.1
2016-06-01T08:41:45.815Z,23.23
2016-06-01T08:42:45.943Z,23.13
2016-06-01T08:43:45.930Z,23.27
2016-06-01T08:44:45.777Z,23.24
2016-06-01T08:45:47.029Z,23.21
2016-06-01T08:46:45.907Z,23.36
2016-06-01T08:47:45.894Z,23.43
2016-06-01T08:48:45.882Z,23.4
2016-06-01T08:49:45.868Z,23.41
2016-06-01T08:50:46.979Z,23.5
2016-06-01T08:51:45.873Z,23.46
2016-06-01T08:52:45.845Z,23.4
2016-06-01T08:53:46.285Z,23.59
2016-06-01T08:54:46.523Z,23.59
2016-06-01T08:55:45.775Z,23.62
2016-06-01T08:56:45.762Z,23.76
2016-06-01T08:57:45.749Z,23.65
2016-06-01T08:58:45.595Z,23.63
2016-06-01T08:59:45.722Z,23.76
2016-06-01T09:00:45.835Z,23.78
2016-06-01T09:01:45.697Z,23.78
2016-06-01T09:02:45.684Z,23.77
2016-06-01T09:03:45.515Z,23.83
2016-06-01T09:04:45.658Z,23.86
2016-06-01T09:05:46.614Z,23.93
2016-06-01T09:06:45.648Z,23.96
2016-06-01T09:07:45.619Z,24.01
2016-06-01T09:08:45.591Z,23.95
2016-06-01T09:09:46.030Z,23.99
2016-06-01T09:10:45.565Z,24.03
2016-06-01T09:11:45.552Z,24.16
2016-06-01T09:12:45.555Z,24.13
2016-06-01T09:14:59.544Z,24.16
2016-06-01T09:16:59.544Z,24.23
2016-06-01T09:17:45.509Z,24.2
2016-06-01T09:18:45.535Z,24.14
2016-06-01T09:19:45.594Z,24.21
2016-06-01T09:20:45.572Z,24.23
2016-06-01T09:21:45.553Z,24.2
2016-06-01T09:22:45.547Z,24.17
2016-06-01T09:23:45.543Z,24.35
2016-06-01T09:24:46.039Z,24.36
2016-06-01T09:25:45.534Z,24.24
2016-06-01T09:26:45.525Z,24.4
2016-06-01T09:27:45.499Z,24.42
2016-06-01T09:28:45.348Z,24.5
2016-06-01T09:29:45.479Z,24.53
2016-06-01T09:30:45.344Z,24.54
2016-06-01T09:32:45.462Z,24.58
2016-06-01T09:33:45.450Z,24.69
2016-06-01T09:34:45.422Z,24.54
2016-06-01T09:35:45.285Z,24.63
2016-06-01T09:36:45.398Z,24.65
2016-06-01T09:37:45.401Z,24.69
2016-06-01T09:38:45.388Z,24.68
2016-06-01T09:39:45.907Z,24.77
2016-06-01T09:40:45.363Z,24.89
2016-06-01T09:41:45.195Z,24.92
2016-06-01T09:42:45.354Z,24.91
2016-06-01T09:43:45.341Z,24.78
2016-06-01T09:44:45.312Z,24.89
2016-06-01T09:45:45.300Z,24.93
2016-06-01T09:46:45.287Z,24.91
2016-06-01T09:47:45.274Z,24.96
2016-06-01T09:48:45.324Z,25.08
2016-06-01T09:49:45.233Z,25.18
2016-06-01T09:50:45.079Z,25.14
2016-06-01T09:51:45.223Z,25.25
2016-06-01T09:52:45.226Z,25.21
2016-06-01T09:53:45.212Z,25.13
2016-06-01T09:54:45.292Z,25.11
2016-06-01T09:55:45.203Z,25.06
2016-06-01T09:56:45.189Z,25.13
2016-06-01T09:57:45.145Z,25.21
2016-06-01T09:58:45.132Z,25.18
2016-06-01T09:59:45.103Z,25.25
2016-06-01T10:00:44.950Z,25.31
2016-06-01T10:01:45.000Z,25.28
2016-06-01T10:02:45.081Z,25.44
2016-06-01T10:03:45.067Z,25.48
2016-06-01T10:04:44.882Z,25.58
2016-06-01T10:05:45.042Z,25.73
2016-06-01T10:06:45.060Z,25.73
2016-06-01T10:07:45.016Z,25.81
2016-06-01T10:08:45.002Z,26.05
2016-06-01T10:09:45.177Z,26
2016-06-01T10:10:44.993Z,26.03
2016-06-01T10:11:44.996Z,26.09
2016-06-01T10:12:44.967Z,26.13
2016-06-01T10:13:44.954Z,26.06
2016-06-01T10:14:44.956Z,26.15
2016-06-01T10:15:44.944Z,26.15
2016-06-01T10:16:44.759Z,26.16
2016-06-01T10:17:44.901Z,26.16
2016-06-01T10:18:44.904Z,26.31
2016-06-01T10:19:44.892Z,26.38
2016-06-01T10:20:44.879Z,26.51
2016-06-01T10:21:44.834Z,26.58
2016-06-01T10:22:44.868Z,26.73
2016-06-01T10:23:44.840Z,26.59
2016-06-01T10:24:44.937Z,26.81
2016-06-01T10:25:44.815Z,26.9
2016-06-01T10:26:44.504Z,26.93
2016-06-01T10:27:44.835Z,26.99
2016-06-01T10:28:44.791Z,26.97
2016-06-01T10:29:44.747Z,27.08
2016-06-01T10:30:44.734Z,26.96
2016-06-01T10:31:44.736Z,27.07
2016-06-01T10:32:44.630Z,27.11
2016-06-01T10:33:44.758Z,27.21
2016-06-01T10:34:44.714Z,27.3
2016-06-01T10:35:44.528Z,27.37
2016-06-01T10:36:44.531Z,27.47
2016-06-01T10:37:44.658Z,27.52
2016-06-01T10:38:44.506Z,27.74
2016-06-01T10:39:44.524Z,27.92
2016-06-01T10:40:44.635Z,28.1
2016-06-01T10:41:44.452Z,28.04
2016-06-01T10:42:44.594Z,28.01
2016-06-01T10:43:44.660Z,28.23
2016-06-01T10:44:44.427Z,28.37
2016-06-01T10:45:44.587Z,28.11
2016-06-01T10:46:44.401Z,28.33
2016-06-01T10:47:44.390Z,28.54
2016-06-01T10:48:44.392Z,28.59
2016-06-01T10:49:44.785Z,28.57
2016-06-01T10:50:44.523Z,28.78
2016-06-01T10:51:44.526Z,29.02
2016-06-01T10:52:44.496Z,29.29
2016-06-01T10:53:44.498Z,29.34
2016-06-01T10:54:45.017Z,29.56
2016-06-01T10:55:44.332Z,29.68
2016-06-01T10:56:44.460Z,29.72
2016-06-01T10:57:44.462Z,29.68
2016-06-01T10:58:44.481Z,29.79
2016-06-01T10:59:44.437Z,29.71
2016-06-01T11:00:44.268Z,29.97
2016-06-01T11:01:44.256Z,30.21
2016-06-01T11:02:44.413Z,30.19
2016-06-01T11:03:44.400Z,30.35
2016-06-01T11:04:44.403Z,30.57
2016-06-01T11:05:44.406Z,30.69
2016-06-01T11:06:44.361Z,30.8
2016-06-01T11:07:44.364Z,30.61
2016-06-01T11:08:44.336Z,30.62
2016-06-01T11:09:44.855Z,30.88
2016-06-01T11:10:44.404Z,30.91
2016-06-01T11:11:44.141Z,31.02
2016-06-01T11:12:44.440Z,31.15
2016-06-01T11:13:44.146Z,31.33
2016-06-01T11:14:44.274Z,31.4
2016-06-01T11:15:44.324Z,31.27
2016-06-01T11:16:44.248Z,31.33
2016-06-01T11:17:44.282Z,31.54
2016-06-01T11:18:44.098Z,31.58
2016-06-01T11:19:44.085Z,31.73
2016-06-01T11:20:44.243Z,31.94
2016-06-01T11:21:44.215Z,31.94
2016-06-01T11:22:44.201Z,31.94
2016-06-01T11:23:44.032Z,31.99
2016-06-01T11:24:44.676Z,32
2016-06-01T11:25:44.398Z,32.14
2016-06-01T11:26:44.165Z,31.93
2016-06-01T11:27:44.012Z,32.03
2016-06-01T11:28:44.140Z,32
2016-06-01T11:29:44.143Z,32.09
2016-06-01T11:30:43.989Z,32.19
2016-06-01T11:31:44.116Z,32.19
2016-06-01T11:32:44.135Z,32.3
2016-06-01T11:33:44.122Z,32.3
2016-06-01T11:34:43.969Z,32.51
2016-06-01T11:35:43.956Z,32.59
2016-06-01T11:36:44.115Z,33.05
2016-06-01T11:37:44.102Z,33.17
2016-06-01T11:38:44.105Z,33.22
2016-06-01T11:39:44.217Z,33.42
2016-06-01T11:40:44.157Z,33.61
2016-06-01T11:41:44.096Z,33.96
2016-06-01T11:42:44.083Z,34.35
2016-06-01T11:43:44.086Z,34.51
2016-06-01T11:44:44.089Z,34.7
2016-06-01T11:45:44.108Z,34.5
2016-06-01T11:46:44.110Z,34.5
2016-06-01T11:47:44.144Z,34.85
2016-06-01T11:48:43.944Z,34.92
2016-06-01T11:49:44.087Z,35.08
2016-06-01T11:50:44.090Z,35.3
2016-06-01T11:51:43.780Z,35.46
2016-06-01T11:52:44.110Z,35.64
2016-06-01T11:53:44.098Z,35.7
2016-06-01T11:54:44.240Z,35.78
2016-06-01T11:55:43.993Z,36.39
2016-06-01T11:56:44.106Z,36.28
2016-06-01T11:57:44.109Z,36.64
2016-06-01T11:58:43.955Z,36
2016-06-01T11:59:44.145Z,36.21
2016-06-01T12:00:44.117Z,36
2016-06-01T12:01:44.120Z,36.4
2016-06-01T12:02:44.122Z,36.58
2016-06-01T12:03:44.156Z,36.95
2016-06-01T12:04:43.972Z,37.03
2016-06-01T12:05:44.146Z,36.91
2016-06-01T12:06:44.147Z,37.45
2016-06-01T12:07:44.136Z,36.8
2016-06-01T12:08:44.170Z,36.2
2016-06-01T12:09:44.703Z,36.61
2016-06-01T12:10:44.987Z,37.49
2016-06-01T12:11:44.162Z,38.21
2016-06-01T12:12:44.180Z,38.36
2016-06-01T12:13:44.167Z,37.9
2016-06-01T12:14:44.030Z,37.6
2016-06-01T12:15:44.204Z,37.67
2016-06-01T12:16:44.035Z,38.28
2016-06-01T12:17:44.209Z,38.61
2016-06-01T12:18:44.180Z,38.96
2016-06-01T12:19:44.215Z,39.09
2016-06-01T12:20:44.201Z,39.12
2016-06-01T12:21:44.204Z,39.48
2016-06-01T12:22:44.207Z,39.6
2016-06-01T12:23:44.226Z,39.99
2016-06-01T12:24:44.837Z,40.31
2016-06-01T12:25:44.231Z,40.16
2016-06-01T12:26:44.093Z,39.36
2016-06-01T12:27:44.236Z,38.11
2016-06-01T12:28:44.255Z,37.47
2016-06-01T12:29:44.289Z,37.63
2016-06-01T12:30:44.259Z,37.18
2016-06-01T12:31:44.123Z,37.21
2016-06-01T12:32:44.281Z,37.48
2016-06-01T12:33:44.283Z,37.83
2016-06-01T12:34:44.427Z,37.47
2016-06-01T12:35:44.305Z,37.92
2016-06-01T12:36:44.291Z,37.97
2016-06-01T12:37:44.139Z,38.45
2016-06-01T12:38:44.313Z,38.95
2016-06-01T12:39:44.628Z,38.67
2016-06-01T12:40:44.194Z,37.93
2016-06-01T12:41:44.180Z,38.42
2016-06-01T12:42:44.308Z,38.97
2016-06-01T12:43:44.342Z,39.68
2016-06-01T12:44:44.344Z,39.51
2016-06-01T12:45:44.174Z,38.57
2016-06-01T12:46:44.381Z,38.77
2016-06-01T12:47:44.196Z,38.62
2016-06-01T12:48:44.433Z,38.4
2016-06-01T12:49:44.358Z,38.15
2016-06-01T12:50:44.360Z,38.54
2016-06-01T12:51:44.394Z,38.99
2016-06-01T12:52:44.382Z,38.89
2016-06-01T12:53:44.400Z,38.12
2016-06-01T12:54:45.512Z,37.8
2016-06-01T12:55:44.405Z,38.43
2016-06-01T12:56:44.440Z,38.62
2016-06-01T12:57:44.410Z,38.82
2016-06-01T12:58:44.398Z,38.34
2016-06-01T12:59:44.416Z,37.96